KSTL/STL METAR and TAF weather

Enter ICAO airport designator
Station Type Date Time Source
KSTL METAR 2017/06/25 23:51 UTC NOAA

KSTL 252351Z 33012G20KT 10SM FEW070 FEW200 26/08 A3017 RMK AO2 SLP207 T02610083 10294 20261 55002


Station Type Date Time Source
KSTL Decoded METAR 2017/06/25 23:51 UTC NOAA

LAMBERT-ST LOUIS INTERNATIONAL AIRPORT , MO, United States (KSTL) 38-45N 90-22W 171M
Jun 25, 2017 - 07:51 PM EDT / 2017.06.25 2351 UTC
Wind: from the NNW (330 degrees) at 14 MPH (12 KT) gusting to 23 MPH (20 KT):0
Visibility: 10 mile(s):0
Sky conditions: mostly clear
Temperature: 79.0 F (26.1 C)
Dew Point: 46.9 F (8.3 C)
Relative Humidity: 32%
Pressure (altimeter): 30.17 in. Hg (1021 hPa)
Pressure tendency: 0.01 inches (0.2 hPa) lower than three hours ago
ob: KSTL 252351Z 33012G20KT 10SM FEW070 FEW200 26/08 A3017 RMK AO2 SLP207 T02610083 10294 20261 55002
cycle: 0

Station Type Date Time Source
KSTL TAF 2017/06/25 21:57 UTC NOAA

TAF
AMD KSTL 252054Z 2521/2624 30012G21KT P6SM SKC
FM252300 31006KT P6SM FEW250
FM260500 VRB04KT P6SM FEW200
FM261600 26006KT P6SM FEW050


Example: see airport list